createdAt,value
2017-03-08T00:00:21.306Z,1005.25
2017-03-08T00:01:21.339Z,1005.29
2017-03-08T00:02:21.372Z,1005.33
2017-03-08T00:03:21.404Z,1005.3
2017-03-08T00:04:21.434Z,1005.31
2017-03-08T00:05:21.468Z,1005.32
2017-03-08T00:06:21.500Z,1005.28
2017-03-08T00:07:21.530Z,1005.23
2017-03-08T00:08:21.564Z,1005.23
2017-03-08T00:09:21.598Z,1005.22
2017-03-08T00:10:21.630Z,1005.22
2017-03-08T00:11:21.661Z,1005.23
2017-03-08T00:12:21.692Z,1005.22
2017-03-08T00:13:21.726Z,1005.25
2017-03-08T00:14:21.759Z,1005.27
2017-03-08T00:15:21.790Z,1005.3
2017-03-08T00:16:21.825Z,1005.31
2017-03-08T00:17:21.855Z,1005.33
2017-03-08T00:18:21.887Z,1005.29
2017-03-08T00:19:21.920Z,1005.3
2017-03-08T00:20:21.953Z,1005.29
2017-03-08T00:21:21.987Z,1005.33
2017-03-08T00:22:22.015Z,1005.31
2017-03-08T00:23:22.052Z,1005.33
2017-03-08T00:24:22.083Z,1005.34
2017-03-08T00:25:22.115Z,1005.31
2017-03-08T00:26:22.148Z,1005.32
2017-03-08T00:27:22.182Z,1005.32
2017-03-08T00:28:22.213Z,1005.33
2017-03-08T00:29:22.245Z,1005.34
2017-03-08T00:30:22.278Z,1005.29
2017-03-08T00:31:22.310Z,1005.31
2017-03-08T00:32:22.342Z,1005.32
2017-03-08T00:33:22.376Z,1005.36
2017-03-08T00:34:22.408Z,1005.33
2017-03-08T00:35:22.440Z,1005.33
2017-03-08T00:36:22.473Z,1005.34
2017-03-08T00:37:22.505Z,1005.3
2017-03-08T00:38:22.538Z,1005.3
2017-03-08T00:39:22.571Z,1005.33
2017-03-08T00:40:22.603Z,1005.32
2017-03-08T00:41:22.634Z,1005.29
2017-03-08T00:42:22.668Z,1005.31
2017-03-08T00:43:22.700Z,1005.31
2017-03-08T00:44:22.733Z,1005.37
2017-03-08T00:45:22.764Z,1005.31
2017-03-08T00:46:22.796Z,1005.3
2017-03-08T00:47:22.828Z,1005.27
2017-03-08T00:48:22.861Z,1005.32
2017-03-08T00:49:22.894Z,1005.33
2017-03-08T00:50:22.927Z,1005.33
2017-03-08T00:51:22.958Z,1005.36
2017-03-08T00:52:22.991Z,1005.28
2017-03-08T00:53:23.023Z,1005.37
2017-03-08T00:54:23.056Z,1005.29
2017-03-08T00:55:23.088Z,1005.33
2017-03-08T00:56:23.119Z,1005.27
2017-03-08T00:57:23.151Z,1005.27
2017-03-08T00:58:23.184Z,1005.21
2017-03-08T00:59:23.217Z,1005.16
2017-03-08T01:00:23.249Z,1005.13
2017-03-08T01:01:23.284Z,1005.11
2017-03-08T01:02:23.316Z,1005.1
2017-03-08T01:03:23.345Z,1005.13
2017-03-08T01:04:23.379Z,1005.1
2017-03-08T01:05:23.412Z,1005.09
2017-03-08T01:06:23.443Z,1005.09
2017-03-08T01:07:23.483Z,1005.09
2017-03-08T01:08:23.507Z,1005.07
2017-03-08T01:09:23.539Z,1005.05
2017-03-08T01:10:23.572Z,1005.1
2017-03-08T01:11:23.605Z,1005.15
2017-03-08T01:12:23.635Z,1005.12
2017-03-08T01:13:23.669Z,1005.13
2017-03-08T01:14:23.704Z,1005.13
2017-03-08T01:15:23.734Z,1005.16
2017-03-08T01:16:23.767Z,1005.15
2017-03-08T01:17:23.796Z,1005.15
2017-03-08T01:18:23.830Z,1005.2
2017-03-08T01:19:23.861Z,1005.22
2017-03-08T01:20:23.894Z,1005.22
2017-03-08T01:21:23.928Z,1005.17
2017-03-08T01:22:23.961Z,1005.18
2017-03-08T01:23:23.991Z,1005.18
2017-03-08T01:24:24.024Z,1005.17
2017-03-08T01:25:24.055Z,1005.16
2017-03-08T01:26:24.088Z,1005.2
2017-03-08T01:27:24.118Z,1005.2
2017-03-08T01:28:24.152Z,1005.16
2017-03-08T01:29:24.182Z,1005.23
2017-03-08T01:30:24.216Z,1005.23
2017-03-08T01:31:24.248Z,1005.25
2017-03-08T01:32:24.279Z,1005.26
2017-03-08T01:33:24.315Z,1005.27
2017-03-08T01:34:24.345Z,1005.24
2017-03-08T01:35:24.377Z,1005.24
2017-03-08T01:36:24.410Z,1005.22
2017-03-08T01:37:24.441Z,1005.24
2017-03-08T01:38:24.473Z,1005.26
2017-03-08T01:39:24.505Z,1005.26
2017-03-08T01:40:24.538Z,1005.21
2017-03-08T01:41:24.570Z,1005.21
2017-03-08T01:42:24.600Z,1005.14
2017-03-08T01:43:24.634Z,1005.11
2017-03-08T01:44:24.668Z,1005.15
2017-03-08T01:45:24.697Z,1005.1
2017-03-08T01:46:24.730Z,1005.11
2017-03-08T01:47:24.764Z,1005.08
2017-03-08T01:48:24.795Z,1005.11
2017-03-08T01:49:24.826Z,1005.11
2017-03-08T01:50:24.859Z,1005.09
2017-03-08T01:51:24.892Z,1005.05
2017-03-08T01:52:24.923Z,1005.03
2017-03-08T01:53:24.955Z,1004.99
2017-03-08T01:54:24.987Z,1004.99
2017-03-08T01:55:25.023Z,1004.99
2017-03-08T01:56:25.052Z,1005.01
2017-03-08T01:57:25.084Z,1005.04
2017-03-08T01:58:25.117Z,1004.97
2017-03-08T01:59:25.151Z,1005
2017-03-08T02:00:25.183Z,1004.99
2017-03-08T02:01:25.215Z,1004.95
2017-03-08T02:02:25.248Z,1004.96
2017-03-08T02:03:25.281Z,1004.93
2017-03-08T02:04:25.314Z,1004.99
2017-03-08T02:05:25.343Z,1004.95
2017-03-08T02:06:25.376Z,1004.95
2017-03-08T02:07:25.409Z,1004.95
2017-03-08T02:08:25.442Z,1005
2017-03-08T02:09:25.472Z,1004.97
2017-03-08T02:10:25.507Z,1005
2017-03-08T02:11:25.537Z,1005
2017-03-08T02:12:25.571Z,1005.04
2017-03-08T02:13:25.603Z,1005.03
2017-03-08T02:14:25.635Z,1005.04
2017-03-08T02:15:25.668Z,1005.05
2017-03-08T02:16:25.700Z,1005.05
2017-03-08T02:17:25.739Z,1005.07
2017-03-08T02:18:25.765Z,1005.09
2017-03-08T02:19:25.799Z,1005.1
2017-03-08T02:20:25.828Z,1005.1
2017-03-08T02:21:25.863Z,1005.12
2017-03-08T02:22:25.895Z,1005.11
2017-03-08T02:23:25.927Z,1005.13
2017-03-08T02:24:25.958Z,1005.11
2017-03-08T02:25:25.992Z,1005.14
2017-03-08T02:26:26.022Z,1005.18
2017-03-08T02:27:26.056Z,1005.21
2017-03-08T02:28:26.088Z,1005.18
2017-03-08T02:29:26.121Z,1005.19
2017-03-08T02:30:26.151Z,1005.21
2017-03-08T02:31:26.184Z,1005.18
2017-03-08T02:32:26.219Z,1005.26
2017-03-08T02:33:26.249Z,1005.22
2017-03-08T02:34:26.284Z,1005.23
2017-03-08T02:35:26.313Z,1005.23
2017-03-08T02:36:26.346Z,1005.2
2017-03-08T02:37:26.377Z,1005.23
2017-03-08T02:38:26.409Z,1005.24
2017-03-08T02:39:26.442Z,1005.28
2017-03-08T02:40:26.474Z,1005.3
2017-03-08T02:41:26.505Z,1005.29
2017-03-08T02:42:26.538Z,1005.32
2017-03-08T02:43:26.571Z,1005.31
2017-03-08T02:44:26.601Z,1005.39
2017-03-08T02:45:26.636Z,1005.43
2017-03-08T02:46:26.698Z,1005.46
2017-03-08T02:47:26.703Z,1005.48
2017-03-08T02:48:26.731Z,1005.48
2017-03-08T02:49:26.763Z,1005.53
2017-03-08T02:50:26.797Z,1005.54
2017-03-08T02:51:26.828Z,1005.6
2017-03-08T02:52:26.858Z,1005.57
2017-03-08T02:53:26.892Z,1005.59
2017-03-08T02:54:26.924Z,1005.58
2017-03-08T02:55:26.955Z,1005.59
2017-03-08T02:56:26.986Z,1005.63
2017-03-08T02:57:27.020Z,1005.61
2017-03-08T02:58:27.052Z,1005.58
2017-03-08T02:59:27.083Z,1005.6
2017-03-08T03:00:27.115Z,1005.58
2017-03-08T03:01:27.149Z,1005.63
2017-03-08T03:02:27.181Z,1005.6
2017-03-08T03:03:27.212Z,1005.64
2017-03-08T03:04:27.245Z,1005.66
2017-03-08T03:05:27.275Z,1005.64
2017-03-08T03:06:27.308Z,1005.69
2017-03-08T03:07:27.340Z,1005.7
2017-03-08T03:08:27.371Z,1005.73
2017-03-08T03:09:27.405Z,1005.73
2017-03-08T03:10:27.438Z,1005.73
2017-03-08T03:11:27.472Z,1005.74
2017-03-08T03:12:27.503Z,1005.78
2017-03-08T03:13:27.534Z,1005.79
2017-03-08T03:14:27.572Z,1005.81
2017-03-08T03:15:27.596Z,1005.85
2017-03-08T03:16:27.630Z,1005.79
2017-03-08T03:17:27.662Z,1005.85
2017-03-08T03:18:27.692Z,1005.86
2017-03-08T03:19:27.726Z,1005.86
2017-03-08T03:20:27.759Z,1005.86
2017-03-08T03:21:27.790Z,1005.91
2017-03-08T03:22:27.824Z,1005.86
2017-03-08T03:23:27.855Z,1005.87
2017-03-08T03:24:27.887Z,1005.85
2017-03-08T03:25:27.918Z,1005.84
2017-03-08T03:26:27.955Z,1005.88
2017-03-08T03:27:27.984Z,1005.85
2017-03-08T03:28:28.017Z,1005.86
2017-03-08T03:29:28.051Z,1005.92
2017-03-08T03:30:28.085Z,1005.92
2017-03-08T03:31:28.114Z,1005.95
2017-03-08T03:32:28.146Z,1005.97
2017-03-08T03:33:28.178Z,1005.99
2017-03-08T03:34:28.212Z,1005.94
2017-03-08T03:35:28.244Z,1005.97
2017-03-08T03:36:28.278Z,1005.99
2017-03-08T03:37:28.310Z,1005.98
2017-03-08T03:38:28.343Z,1006.01
2017-03-08T03:39:28.374Z,1006.06
2017-03-08T03:40:28.408Z,1006.03
2017-03-08T03:41:28.439Z,1006.07
2017-03-08T03:42:28.474Z,1006.06
2017-03-08T03:43:28.506Z,1006.04
2017-03-08T03:44:28.537Z,1006.03
2017-03-08T03:45:28.570Z,1006.04
2017-03-08T03:46:28.602Z,1006.01
2017-03-08T03:47:28.633Z,1006.03
2017-03-08T03:48:28.678Z,1006.13
2017-03-08T03:49:28.701Z,1006.09
2017-03-08T03:50:28.731Z,1006.12
2017-03-08T03:51:28.764Z,1006.13
2017-03-08T03:52:28.814Z,1006.14
2017-03-08T03:53:28.829Z,1006.16
2017-03-08T03:54:28.862Z,1006.22
2017-03-08T03:55:28.895Z,1006.24
2017-03-08T03:56:28.926Z,1006.2
2017-03-08T03:57:28.961Z,1006.24
2017-03-08T03:58:28.992Z,1006.2
2017-03-08T03:59:29.026Z,1006.21
2017-03-08T04:00:29.063Z,1006.24
2017-03-08T04:01:29.088Z,1006.19
2017-03-08T04:02:29.122Z,1006.24
2017-03-08T04:03:29.154Z,1006.22
2017-03-08T04:04:29.186Z,1006.21
2017-03-08T04:05:29.220Z,1006.23
2017-03-08T04:06:29.252Z,1006.21
2017-03-08T04:07:29.285Z,1006.2
2017-03-08T04:08:29.318Z,1006.16
2017-03-08T04:09:29.351Z,1006.11
2017-03-08T04:10:29.382Z,1006.12
2017-03-08T04:11:29.415Z,1006.15
2017-03-08T04:12:29.446Z,1006.13
2017-03-08T04:13:29.479Z,1006.16
2017-03-08T04:14:29.512Z,1006.13
2017-03-08T04:15:29.545Z,1006.15
2017-03-08T04:16:29.577Z,1006.19
2017-03-08T04:17:29.610Z,1006.15
2017-03-08T04:18:29.643Z,1006.13
2017-03-08T04:19:29.681Z,1006.1
2017-03-08T04:20:29.707Z,1006.12
2017-03-08T04:21:29.741Z,1006.09
2017-03-08T04:22:29.785Z,1006.11
2017-03-08T04:23:29.806Z,1006.06
2017-03-08T04:24:29.838Z,1006.1
2017-03-08T04:25:29.903Z,1006.03
2017-03-08T04:26:29.904Z,1006.06
2017-03-08T04:27:29.935Z,1006.03
2017-03-08T04:28:29.970Z,1006.05
2017-03-08T04:29:30.001Z,1006.08
2017-03-08T04:30:30.034Z,1006.03
2017-03-08T04:31:30.068Z,1006.05
2017-03-08T04:32:30.099Z,1006.03
2017-03-08T04:33:30.134Z,1005.97
2017-03-08T04:34:30.163Z,1005.97
2017-03-08T04:35:30.197Z,1005.96
2017-03-08T04:36:30.231Z,1005.91
2017-03-08T04:37:30.262Z,1005.94
2017-03-08T04:38:30.297Z,1005.89
2017-03-08T04:39:30.328Z,1005.86
2017-03-08T04:40:30.362Z,1005.86
2017-03-08T04:41:30.391Z,1005.91
2017-03-08T04:42:30.425Z,1005.98
2017-03-08T04:43:30.458Z,1005.93
2017-03-08T04:44:30.492Z,1006
2017-03-08T04:45:30.522Z,1005.97
2017-03-08T04:46:30.555Z,1006
2017-03-08T04:47:30.587Z,1006
2017-03-08T04:48:30.623Z,1005.98
2017-03-08T04:49:30.653Z,1006
2017-03-08T04:50:30.684Z,1005.95
2017-03-08T04:51:30.719Z,1005.99
2017-03-08T04:52:30.750Z,1005.95
2017-03-08T04:53:30.783Z,1005.96
2017-03-08T04:54:30.816Z,1005.97
2017-03-08T04:55:30.850Z,1006.01
2017-03-08T04:56:30.879Z,1006
2017-03-08T04:57:30.913Z,1006.03
2017-03-08T04:58:30.944Z,1006.01
2017-03-08T04:59:30.976Z,1005.98
2017-03-08T05:00:31.011Z,1005.99
2017-03-08T05:01:31.041Z,1005.98
2017-03-08T05:02:31.073Z,1005.95
2017-03-08T05:03:31.112Z,1005.95
2017-03-08T05:04:31.138Z,1005.92
2017-03-08T05:05:31.171Z,1005.85
2017-03-08T05:06:31.205Z,1005.88
2017-03-08T05:07:31.234Z,1005.81
2017-03-08T05:08:31.266Z,1005.82
2017-03-08T05:09:31.298Z,1005.84
2017-03-08T05:10:31.333Z,1005.81
2017-03-08T05:11:31.363Z,1005.84
2017-03-08T05:12:31.397Z,1005.89
2017-03-08T05:13:31.431Z,1005.92
2017-03-08T05:14:31.459Z,1005.94
2017-03-08T05:15:31.492Z,1005.97
2017-03-08T05:16:31.525Z,1005.97
2017-03-08T05:17:31.558Z,1005.96
2017-03-08T05:18:31.588Z,1006.01
2017-03-08T05:19:31.621Z,1005.98
2017-03-08T05:20:31.653Z,1006.01
2017-03-08T05:21:31.684Z,1006.02
2017-03-08T05:22:31.716Z,1006.02
2017-03-08T05:23:31.749Z,1006.06
2017-03-08T05:24:31.782Z,1006.05
2017-03-08T05:25:31.843Z,1006.07
2017-03-08T05:26:31.844Z,1006.08
2017-03-08T05:27:31.879Z,1006.04
2017-03-08T05:28:31.911Z,1006.09
2017-03-08T05:29:31.942Z,1006.1
2017-03-08T05:30:31.972Z,1006.06
2017-03-08T05:31:32.006Z,1006.12
2017-03-08T05:32:32.036Z,1006.11
2017-03-08T05:33:32.070Z,1006.14
2017-03-08T05:34:32.101Z,1006.16
2017-03-08T05:35:32.133Z,1006.16
2017-03-08T05:36:32.166Z,1006.19
2017-03-08T05:37:32.198Z,1006.21
2017-03-08T05:38:32.230Z,1006.22
2017-03-08T05:39:32.262Z,1006.23
2017-03-08T05:40:32.293Z,1006.25
2017-03-08T05:41:32.325Z,1006.25
2017-03-08T05:42:32.359Z,1006.32
2017-03-08T05:43:32.390Z,1006.32
2017-03-08T05:44:32.422Z,1006.38
2017-03-08T05:45:32.454Z,1006.33
2017-03-08T05:46:32.486Z,1006.32
2017-03-08T05:47:32.517Z,1006.32
2017-03-08T05:48:32.549Z,1006.31
2017-03-08T05:49:32.582Z,1006.34
2017-03-08T05:50:32.614Z,1006.37
2017-03-08T05:51:32.646Z,1006.37
2017-03-08T05:52:32.677Z,1006.41
2017-03-08T05:53:32.709Z,1006.45
2017-03-08T05:54:32.740Z,1006.47
2017-03-08T05:55:32.773Z,1006.44
2017-03-08T05:56:32.804Z,1006.51
2017-03-08T05:57:32.837Z,1006.5
2017-03-08T05:58:32.869Z,1006.52
2017-03-08T05:59:32.901Z,1006.55
2017-03-08T06:00:32.934Z,1006.52
2017-03-08T06:01:32.967Z,1006.54
2017-03-08T06:02:32.997Z,1006.56
2017-03-08T06:03:33.031Z,1006.56
2017-03-08T06:04:33.063Z,1006.56
2017-03-08T06:05:33.093Z,1006.6
2017-03-08T06:06:33.125Z,1006.6
2017-03-08T06:07:33.159Z,1006.64
2017-03-08T06:08:33.190Z,1006.59
2017-03-08T06:09:33.222Z,1006.59
2017-03-08T06:10:33.255Z,1006.62
2017-03-08T06:11:33.286Z,1006.68
2017-03-08T06:12:33.321Z,1006.6
2017-03-08T06:13:33.349Z,1006.63
2017-03-08T06:14:33.385Z,1006.63
2017-03-08T06:15:33.415Z,1006.66
2017-03-08T06:16:33.446Z,1006.68
2017-03-08T06:17:33.480Z,1006.68
2017-03-08T06:18:33.514Z,1006.74
2017-03-08T06:19:33.546Z,1006.73
2017-03-08T06:20:33.575Z,1006.71
2017-03-08T06:21:33.619Z,1006.76
2017-03-08T06:22:33.642Z,1006.82
2017-03-08T06:23:33.676Z,1006.82
2017-03-08T06:24:33.707Z,1006.81
2017-03-08T06:25:33.740Z,1006.83
2017-03-08T06:26:33.778Z,1006.83
2017-03-08T06:27:33.805Z,1006.84
2017-03-08T06:28:33.839Z,1006.85
2017-03-08T06:29:33.872Z,1006.87
2017-03-08T06:30:33.902Z,1006.85
2017-03-08T06:31:34.049Z,1006.87
2017-03-08T06:32:33.969Z,1006.84
2017-03-08T06:33:34.002Z,1006.84
2017-03-08T06:34:34.035Z,1006.89
2017-03-08T06:35:34.069Z,1006.93
2017-03-08T06:36:34.102Z,1006.94
2017-03-08T06:37:34.133Z,1006.96
2017-03-08T06:38:34.167Z,1006.97
2017-03-08T06:39:34.200Z,1006.99
2017-03-08T06:40:34.234Z,1007.03
2017-03-08T06:41:34.267Z,1007
2017-03-08T06:42:34.298Z,1007.06
2017-03-08T06:43:34.333Z,1007.02
2017-03-08T06:44:34.367Z,1007.02
2017-03-08T06:45:34.400Z,1007.03
2017-03-08T06:46:34.434Z,1007.01
2017-03-08T06:47:34.467Z,1007.07
2017-03-08T06:48:34.502Z,1007.07
2017-03-08T06:49:34.532Z,1007.12
2017-03-08T06:50:34.567Z,1007.13
2017-03-08T06:51:34.750Z,1007.13
2017-03-08T06:52:34.635Z,1007.14
2017-03-08T06:53:34.666Z,1007.18
2017-03-08T06:54:34.700Z,1007.17
2017-03-08T06:55:34.801Z,1007.16
2017-03-08T06:56:34.766Z,1007.2
2017-03-08T06:57:34.798Z,1007.22
2017-03-08T06:58:34.836Z,1007.22
2017-03-08T06:59:34.865Z,1007.23
2017-03-08T07:00:34.898Z,1007.23
2017-03-08T07:01:34.933Z,1007.24
2017-03-08T07:02:34.967Z,1007.26
2017-03-08T07:03:35.001Z,1007.3
2017-03-08T07:04:35.076Z,1007.31
2017-03-08T07:05:35.091Z,1007.34
2017-03-08T07:06:35.100Z,1007.33
2017-03-08T07:07:35.200Z,1007.37
2017-03-08T07:08:35.265Z,1007.31
2017-03-08T07:09:35.268Z,1007.33
2017-03-08T07:10:35.235Z,1007.38
2017-03-08T07:11:35.266Z,1007.36
2017-03-08T07:12:35.372Z,1007.36
2017-03-08T07:13:35.336Z,1007.36
2017-03-08T07:14:35.367Z,1007.42
2017-03-08T07:15:35.403Z,1007.42
2017-03-08T07:16:35.435Z,1007.41
2017-03-08T07:17:35.469Z,1007.42
2017-03-08T07:18:35.502Z,1007.43
2017-03-08T07:19:35.534Z,1007.43
2017-03-08T07:20:35.568Z,1007.36
2017-03-08T07:21:35.605Z,1007.37
2017-03-08T07:22:35.636Z,1007.4
2017-03-08T07:23:35.670Z,1007.37
2017-03-08T07:24:35.707Z,1007.43
2017-03-08T07:25:35.735Z,1007.4
2017-03-08T07:26:35.769Z,1007.42
2017-03-08T07:27:35.802Z,1007.42
2017-03-08T07:28:35.837Z,1007.44
2017-03-08T07:29:35.869Z,1007.45
2017-03-08T07:30:35.904Z,1007.49
2017-03-08T07:31:35.937Z,1007.52
2017-03-08T07:32:36.177Z,1007.46
2017-03-08T07:33:36.004Z,1007.49
2017-03-08T07:34:36.047Z,1007.5
2017-03-08T07:35:36.090Z,1007.48
2017-03-08T07:36:36.120Z,1007.45
2017-03-08T07:37:36.138Z,1007.51
2017-03-08T07:38:36.171Z,1007.52
2017-03-08T07:39:36.509Z,1007.57
2017-03-08T07:40:36.241Z,1007.6
2017-03-08T07:41:36.296Z,1007.6
2017-03-08T07:42:36.353Z,1007.59
2017-03-08T07:43:36.368Z,1007.56
2017-03-08T07:44:36.371Z,1007.62
2017-03-08T07:45:36.407Z,1007.61
2017-03-08T07:46:36.440Z,1007.6
2017-03-08T07:47:36.474Z,1007.6
2017-03-08T07:48:36.623Z,1007.64
2017-03-08T07:49:36.539Z,1007.6
2017-03-08T07:50:36.573Z,1007.58
2017-03-08T07:51:36.607Z,1007.58
2017-03-08T07:52:36.641Z,1007.61
2017-03-08T07:53:36.676Z,1007.6
2017-03-08T07:54:36.712Z,1007.6
2017-03-08T07:55:36.742Z,1007.55
2017-03-08T07:56:36.788Z,1007.6
2017-03-08T07:57:36.858Z,1007.59
2017-03-08T07:58:36.844Z,1007.58
2017-03-08T07:59:36.875Z,1007.57
2017-03-08T08:00:36.910Z,1007.57
2017-03-08T08:01:36.944Z,1007.54
2017-03-08T08:02:36.975Z,1007.56
2017-03-08T08:03:37.015Z,1007.58
2017-03-08T08:04:37.050Z,1007.59
2017-03-08T08:05:37.079Z,1007.54
2017-03-08T08:06:37.112Z,1007.61
2017-03-08T08:07:37.146Z,1007.56
2017-03-08T08:08:37.179Z,1007.59
2017-03-08T08:09:37.215Z,1007.54
2017-03-08T08:10:37.246Z,1007.53
2017-03-08T08:11:37.281Z,1007.55
2017-03-08T08:12:37.315Z,1007.56
2017-03-08T08:13:37.386Z,1007.57
2017-03-08T08:14:37.383Z,1007.53
2017-03-08T08:15:37.416Z,1007.53
2017-03-08T08:16:37.450Z,1007.51
2017-03-08T08:17:37.499Z,1007.51
2017-03-08T08:18:37.516Z,1007.47
2017-03-08T08:19:37.551Z,1007.47
2017-03-08T08:20:37.591Z,1007.46
2017-03-08T08:21:37.619Z,1007.44
2017-03-08T08:22:37.654Z,1007.45
2017-03-08T08:23:37.688Z,1007.45
2017-03-08T08:24:37.719Z,1007.49
2017-03-08T08:25:37.756Z,1007.48
2017-03-08T08:26:37.789Z,1007.46
2017-03-08T08:27:37.823Z,1007.46
2017-03-08T08:28:37.857Z,1007.46
2017-03-08T08:29:37.889Z,1007.44
2017-03-08T08:30:37.925Z,1007.4
2017-03-08T08:31:37.958Z,1007.41
2017-03-08T08:32:37.991Z,1007.38
2017-03-08T08:33:38.025Z,1007.35
2017-03-08T08:34:38.060Z,1007.36
2017-03-08T08:35:38.095Z,1007.33
2017-03-08T08:36:38.128Z,1007.35
2017-03-08T08:37:38.164Z,1007.33
2017-03-08T08:38:38.196Z,1007.31
2017-03-08T08:39:38.231Z,1007.34
2017-03-08T08:40:38.264Z,1007.31
2017-03-08T08:41:38.299Z,1007.3
2017-03-08T08:42:38.333Z,1007.31
2017-03-08T08:43:38.365Z,1007.27
2017-03-08T08:44:38.402Z,1007.31
2017-03-08T08:45:38.436Z,1007.26
2017-03-08T08:46:38.468Z,1007.28
2017-03-08T08:47:38.503Z,1007.28
2017-03-08T08:48:38.540Z,1007.29
2017-03-08T08:49:38.572Z,1007.29
2017-03-08T08:50:38.607Z,1007.32
2017-03-08T08:51:38.642Z,1007.34
2017-03-08T08:52:38.677Z,1007.31
2017-03-08T08:53:38.711Z,1007.34
2017-03-08T08:54:38.746Z,1007.32
2017-03-08T08:55:38.781Z,1007.35
2017-03-08T08:56:38.817Z,1007.31
2017-03-08T08:57:38.850Z,1007.28
2017-03-08T08:58:38.886Z,1007.34
2017-03-08T08:59:38.920Z,1007.32
2017-03-08T09:00:38.956Z,1007.32
2017-03-08T09:01:38.988Z,1007.32
2017-03-08T09:02:39.022Z,1007.28
2017-03-08T09:03:39.058Z,1007.23
2017-03-08T09:04:39.093Z,1007.28
2017-03-08T09:05:39.129Z,1007.28
2017-03-08T09:06:39.164Z,1007.3
2017-03-08T09:07:39.199Z,1007.35
2017-03-08T09:08:39.238Z,1007.32
2017-03-08T09:09:39.271Z,1007.33
2017-03-08T09:10:39.316Z,1007.36
2017-03-08T09:11:39.350Z,1007.35
2017-03-08T09:12:39.378Z,1007.33
2017-03-08T09:13:39.415Z,1007.42
2017-03-08T09:14:39.451Z,1007.41
2017-03-08T09:15:39.494Z,1007.46
2017-03-08T09:16:39.522Z,1007.43
2017-03-08T09:17:39.559Z,1007.44
2017-03-08T09:18:39.599Z,1007.44
2017-03-08T09:19:39.635Z,1007.42
2017-03-08T09:20:39.671Z,1007.48
2017-03-08T09:21:39.709Z,1007.48
2017-03-08T09:22:39.746Z,1007.45
2017-03-08T09:23:39.783Z,1007.46
2017-03-08T09:24:39.821Z,1007.49
2017-03-08T09:25:39.858Z,1007.47
2017-03-08T09:26:39.896Z,1007.48
2017-03-08T09:27:39.936Z,1007.46
2017-03-08T09:28:39.971Z,1007.53
2017-03-08T09:29:40.023Z,1007.47
2017-03-08T09:30:40.048Z,1007.39
2017-03-08T09:31:40.089Z,1007.45
2017-03-08T09:32:40.129Z,1007.4
2017-03-08T09:33:40.261Z,1007.47
2017-03-08T09:34:40.213Z,1007.48
2017-03-08T09:35:40.250Z,1007.46
2017-03-08T09:36:40.292Z,1007.41
2017-03-08T09:37:40.335Z,1007.41
2017-03-08T09:38:40.374Z,1007.4
2017-03-08T09:39:40.419Z,1007.37
2017-03-08T09:40:40.463Z,1007.34
2017-03-08T09:41:40.503Z,1007.41
2017-03-08T09:42:40.547Z,1007.4
2017-03-08T09:43:40.592Z,1007.31
2017-03-08T09:44:40.636Z,1007.29
2017-03-08T09:45:40.705Z,1007.4
2017-03-08T09:46:40.723Z,1007.35
2017-03-08T09:47:40.767Z,1007.41
2017-03-08T09:48:40.810Z,1007.4
2017-03-08T09:49:40.856Z,1007.34
2017-03-08T09:50:40.901Z,1007.38
2017-03-08T09:51:40.947Z,1007.38
2017-03-08T09:52:40.989Z,1007.28
2017-03-08T09:53:41.034Z,1007.27
2017-03-08T09:54:41.083Z,1007.22
2017-03-08T09:55:41.121Z,1007.28
2017-03-08T09:56:41.166Z,1007.25
2017-03-08T09:57:41.212Z,1007.21
2017-03-08T09:58:41.254Z,1007.16
2017-03-08T09:59:41.298Z,1007.21
2017-03-08T10:00:41.340Z,1007.12
2017-03-08T10:01:41.383Z,1007.21
2017-03-08T10:02:41.440Z,1007.2
2017-03-08T10:03:41.468Z,1007.2
2017-03-08T10:04:41.511Z,1007.18
2017-03-08T10:05:41.556Z,1007.18
2017-03-08T10:06:41.599Z,1007.21
2017-03-08T10:07:41.642Z,1007.14
2017-03-08T10:08:41.685Z,1007.12
2017-03-08T10:09:41.729Z,1007.14
2017-03-08T10:10:41.772Z,1007.12
2017-03-08T10:11:41.817Z,1007.17
2017-03-08T10:12:41.861Z,1007.13
2017-03-08T10:13:41.914Z,1007.09
2017-03-08T10:14:41.946Z,1007.06
2017-03-08T10:15:41.987Z,1007.13
2017-03-08T10:16:42.031Z,1007.08
2017-03-08T10:17:42.072Z,1007.22
2017-03-08T10:18:42.114Z,1007.08
2017-03-08T10:19:42.156Z,1007.09
2017-03-08T10:20:42.199Z,1007.06
2017-03-08T10:21:42.238Z,1007.11
2017-03-08T10:22:42.281Z,1007.13
2017-03-08T10:23:42.330Z,1007.05
2017-03-08T10:24:42.364Z,1007.04
2017-03-08T10:25:42.405Z,1007.01
2017-03-08T10:26:42.451Z,1006.93
2017-03-08T10:27:42.486Z,1006.93
2017-03-08T10:28:42.529Z,1006.89
2017-03-08T10:29:42.567Z,1006.89
2017-03-08T10:30:42.609Z,1006.94
2017-03-08T10:31:42.651Z,1006.94
2017-03-08T10:32:42.689Z,1006.9
2017-03-08T10:33:42.731Z,1006.88
2017-03-08T10:34:42.769Z,1006.88
2017-03-08T10:35:42.812Z,1006.91
2017-03-08T10:36:42.855Z,1006.86
2017-03-08T10:37:42.890Z,1006.96
2017-03-08T10:38:42.932Z,1006.87
2017-03-08T10:39:42.968Z,1006.9
2017-03-08T10:40:43.022Z,1006.96
2017-03-08T10:41:43.053Z,1006.94
2017-03-08T10:42:43.092Z,1006.98
2017-03-08T10:43:43.131Z,1006.96
2017-03-08T10:44:43.169Z,1006.89
2017-03-08T10:45:43.210Z,1006.99
2017-03-08T10:46:43.250Z,1007.05
2017-03-08T10:47:43.289Z,1007.01
2017-03-08T10:48:43.329Z,1007.03
2017-03-08T10:49:43.370Z,1007.03
2017-03-08T10:50:43.411Z,1006.99
2017-03-08T10:51:43.450Z,1007
2017-03-08T10:52:43.491Z,1007.04
2017-03-08T10:53:43.534Z,1007.07
2017-03-08T10:54:43.574Z,1007
2017-03-08T10:55:43.618Z,1007.04
2017-03-08T10:56:43.656Z,1007.07
2017-03-08T10:57:43.698Z,1007.03
2017-03-08T10:58:43.739Z,1007.1
2017-03-08T10:59:43.781Z,1007.03
2017-03-08T11:00:43.829Z,1007.08
2017-03-08T11:01:43.883Z,1007.08
2017-03-08T11:02:43.909Z,1007.16
2017-03-08T11:03:43.949Z,1007.16
2017-03-08T11:04:43.990Z,1007.06
2017-03-08T11:05:44.326Z,1007.11
2017-03-08T11:06:44.299Z,1007.08
2017-03-08T11:07:44.119Z,1007.06
2017-03-08T11:08:44.162Z,1007.04
2017-03-08T11:09:44.205Z,1007.06
2017-03-08T11:10:44.281Z,1007.04
2017-03-08T11:11:44.292Z,1007.1
2017-03-08T11:12:44.332Z,1007.09
2017-03-08T11:13:44.377Z,1007.11
2017-03-08T11:14:44.421Z,1007.07
2017-03-08T11:15:44.466Z,1007.12
2017-03-08T11:16:44.507Z,1007.05
2017-03-08T11:17:44.550Z,1007.17
2017-03-08T11:18:44.592Z,1007.12
2017-03-08T11:19:44.636Z,1007.1
2017-03-08T11:20:44.677Z,1007.13
2017-03-08T11:21:44.721Z,1007.1
2017-03-08T11:22:44.765Z,1007.12
2017-03-08T11:23:44.805Z,1007.13
2017-03-08T11:24:44.848Z,1007.11
2017-03-08T11:25:44.895Z,1007.05
2017-03-08T11:26:44.938Z,1007.01
2017-03-08T11:27:44.977Z,1007.05
2017-03-08T11:28:45.021Z,1007
2017-03-08T11:29:45.063Z,1006.94
2017-03-08T11:30:45.107Z,1006.9
2017-03-08T11:31:45.148Z,1006.88
2017-03-08T11:32:45.192Z,1006.93
2017-03-08T11:33:45.234Z,1006.83
2017-03-08T11:34:45.273Z,1006.78
2017-03-08T11:35:45.316Z,1006.78
2017-03-08T11:36:45.360Z,1006.76
2017-03-08T11:37:45.402Z,1006.59
2017-03-08T11:38:45.442Z,1006.64
2017-03-08T11:39:45.483Z,1006.7
2017-03-08T11:40:45.527Z,1006.63
2017-03-08T11:41:45.566Z,1006.61
2017-03-08T11:42:45.609Z,1006.57
2017-03-08T11:43:45.652Z,1006.61
2017-03-08T11:44:45.700Z,1006.55
2017-03-08T11:45:45.732Z,1006.51
2017-03-08T11:46:45.775Z,1006.49
2017-03-08T11:47:45.815Z,1006.45
2017-03-08T11:48:45.856Z,1006.41
2017-03-08T11:49:45.896Z,1006.41
2017-03-08T11:50:45.937Z,1006.39
2017-03-08T11:51:45.980Z,1006.46
2017-03-08T11:52:46.095Z,1006.34
2017-03-08T11:53:46.060Z,1006.35
2017-03-08T11:54:46.102Z,1006.4
2017-03-08T11:55:46.142Z,1006.35
2017-03-08T11:56:46.183Z,1006.25
2017-03-08T11:57:46.223Z,1006.23
2017-03-08T11:58:46.264Z,1006.22
2017-03-08T11:59:46.303Z,1006.22
2017-03-08T12:00:46.352Z,1006.22
2017-03-08T12:01:46.383Z,1006.15
2017-03-08T12:02:46.423Z,1006.22
2017-03-08T12:03:46.463Z,1006.22
2017-03-08T12:04:46.504Z,1006.24
2017-03-08T12:05:46.544Z,1006.28
2017-03-08T12:06:46.583Z,1006.28
2017-03-08T12:07:46.623Z,1006.29
2017-03-08T12:08:46.669Z,1006.26